sensor_id;sensor_type;location;lat;lon;timestamp;P1;durP1;ratioP1;P2;durP2;ratioP2
84011;SDS011;74081;52.490;13.428;2023-11-22T14:16:49;19.88;;;11.15;;
84011;SDS011;74081;52.490;13.428;2023-11-22T14:19:17;19.00;;;13.18;;
84011;SDS011;74081;52.490;13.428;2023-11-22T14:21:43;29.92;;;17.55;;
84011;SDS011;74081;52.490;13.428;2023-11-22T14:24:10;32.80;;;18.45;;
84011;SDS011;74081;52.490;13.428;2023-11-22T14:26:39;31.65;;;17.85;;
84011;SDS011;74081;52.490;13.428;2023-11-22T14:29:05;23.50;;;14.60;;
84011;SDS011;74081;52.490;13.428;2023-11-22T14:31:32;16.48;;;12.10;;
84011;SDS011;74081;52.490;13.428;2023-11-22T14:33:59;15.48;;;11.30;;
84011;SDS011;74081;52.490;13.428;2023-11-22T14:36:26;17.98;;;13.02;;
84011;SDS011;74081;52.490;13.428;2023-11-22T14:38:53;18.77;;;12.20;;
84011;SDS011;74081;52.490;13.428;2023-11-22T14:41:23;13.85;;;11.70;;
84011;SDS011;74081;52.490;13.428;2023-11-22T14:43:50;11.88;;;8.80;;
84011;SDS011;74081;52.490;13.428;2023-11-22T14:46:18;15.43;;;11.25;;
84011;SDS011;74081;52.490;13.428;2023-11-22T14:48:45;12.50;;;9.73;;
84011;SDS011;74081;52.490;13.428;2023-11-22T14:51:15;14.10;;;9.63;;
84011;SDS011;74081;52.490;13.428;2023-11-22T14:53:42;21.10;;;12.80;;
84011;SDS011;74081;52.490;13.428;2023-11-22T14:56:09;24.55;;;16.05;;
84011;SDS011;74081;52.490;13.428;2023-11-22T14:58:36;19.58;;;15.73;;
84011;SDS011;74081;52.490;13.428;2023-11-22T15:01:03;15.13;;;12.07;;
84011;SDS011;74081;52.490;13.428;2023-11-22T15:03:32;16.65;;;13.18;;
84011;SDS011;74081;52.490;13.428;2023-11-22T15:05:59;12.82;;;9.45;;
84011;SDS011;74081;52.490;13.428;2023-11-22T15:08:26;10.20;;;9.23;;
84011;SDS011;74081;52.490;13.428;2023-11-22T15:10:55;18.88;;;12.48;;
84011;SDS011;74081;52.490;13.428;2023-11-22T15:13:22;18.88;;;12.73;;
84011;SDS011;74081;52.490;13.428;2023-11-22T15:15:48;14.60;;;11.82;;
84011;SDS011;74081;52.490;13.428;2023-11-22T15:18:16;17.80;;;12.23;;
84011;SDS011;74081;52.490;13.428;2023-11-22T15:20:43;12.40;;;10.00;;
84011;SDS011;74081;52.490;13.428;2023-11-22T15:23:10;13.63;;;9.98;;
84011;SDS011;74081;52.490;13.428;2023-11-22T15:25:38;9.23;;;8.00;;
84011;SDS011;74081;52.490;13.428;2023-11-22T15:28:05;12.68;;;8.55;;
84011;SDS011;74081;52.490;13.428;2023-11-22T15:30:33;11.30;;;9.20;;
84011;SDS011;74081;52.490;13.428;2023-11-22T15:33:00;15.60;;;10.40;;
84011;SDS011;74081;52.490;13.428;2023-11-22T15:35:28;18.90;;;14.15;;
84011;SDS011;74081;52.490;13.428;2023-11-22T15:37:54;20.15;;;12.80;;
84011;SDS011;74081;52.490;13.428;2023-11-22T15:40:22;16.88;;;12.68;;
84011;SDS011;74081;52.490;13.428;2023-11-22T15:42:49;13.20;;;10.30;;
84011;SDS011;74081;52.490;13.428;2023-11-22T15:45:16;12.07;;;9.80;;
84011;SDS011;74081;52.490;13.428;2023-11-22T15:47:43;16.00;;;11.73;;
84011;SDS011;74081;52.490;13.428;2023-11-22T15:50:11;15.60;;;13.10;;
84011;SDS011;74081;52.490;13.428;2023-11-22T15:52:38;18.95;;;11.73;;
84011;SDS011;74081;52.490;13.428;2023-11-22T15:55:05;29.15;;;16.98;;
84011;SDS011;74081;52.490;13.428;2023-11-22T15:57:32;16.08;;;12.13;;
84011;SDS011;74081;52.490;13.428;2023-11-22T15:59:59;11.10;;;9.05;;
84011;SDS011;74081;52.490;13.428;2023-11-22T16:02:26;11.80;;;9.90;;
84011;SDS011;74081;52.490;13.428;2023-11-22T16:04:56;14.10;;;8.63;;
84011;SDS011;74081;52.490;13.428;2023-11-22T16:07:23;10.25;;;8.80;;
84011;SDS011;74081;52.490;13.428;2023-11-22T16:09:51;10.93;;;9.73;;
84011;SDS011;74081;52.490;13.428;2023-11-22T16:12:18;13.25;;;10.02;;
84011;SDS011;74081;52.490;13.428;2023-11-22T16:14:46;11.80;;;9.93;;
84011;SDS011;74081;52.490;13.428;2023-11-22T16:17:13;11.98;;;8.80;;
84011;SDS011;74081;52.490;13.428;2023-11-22T16:19:42;11.68;;;8.77;;
84011;SDS011;74081;52.490;13.428;2023-11-22T16:22:12;10.55;;;8.05;;
84011;SDS011;74081;52.490;13.428;2023-11-22T16:24:39;10.77;;;7.97;;
84011;SDS011;74081;52.490;13.428;2023-11-22T16:27:07;14.23;;;9.52;;
84011;SDS011;74081;52.490;13.428;2023-11-22T16:29:33;13.95;;;9.75;;
84011;SDS011;74081;52.490;13.428;2023-11-22T16:32:00;18.95;;;11.52;;
84011;SDS011;74081;52.490;13.428;2023-11-22T16:34:27;43.58;;;23.95;;
84011;SDS011;74081;52.490;13.428;2023-11-22T16:36:55;26.50;;;16.30;;
84011;SDS011;74081;52.490;13.428;2023-11-22T16:39:22;17.33;;;10.80;;
84011;SDS011;74081;52.490;13.428;2023-11-22T16:41:55;10.30;;;9.27;;
84011;SDS011;74081;52.490;13.428;2023-11-22T16:44:22;17.58;;;13.00;;
84011;SDS011;74081;52.490;13.428;2023-11-22T16:46:49;41.35;;;23.02;;
84011;SDS011;74081;52.490;13.428;2023-11-22T16:49:17;24.17;;;13.95;;
84011;SDS011;74081;52.490;13.428;2023-11-22T16:51:45;20.17;;;11.98;;
84011;SDS011;74081;52.490;13.428;2023-11-22T16:54:13;16.80;;;11.27;;
84011;SDS011;74081;52.490;13.428;2023-11-22T16:56:40;15.30;;;10.25;;
84011;SDS011;74081;52.490;13.428;2023-11-22T16:59:08;32.03;;;21.67;;
84011;SDS011;74081;52.490;13.428;2023-11-22T17:01:35;21.02;;;14.35;;
84011;SDS011;74081;52.490;13.428;2023-11-22T17:04:02;14.30;;;11.48;;
84011;SDS011;74081;52.490;13.428;2023-11-22T17:06:30;15.73;;;10.40;;
84011;SDS011;74081;52.490;13.428;2023-11-22T17:08:56;24.92;;;16.83;;
84011;SDS011;74081;52.490;13.428;2023-11-22T17:11:23;19.75;;;12.38;;
84011;SDS011;74081;52.490;13.428;2023-11-22T17:13:50;27.40;;;15.30;;
84011;SDS011;74081;52.490;13.428;2023-11-22T17:16:17;23.63;;;15.15;;
84011;SDS011;74081;52.490;13.428;2023-11-22T17:18:45;18.30;;;13.53;;
84011;SDS011;74081;52.490;13.428;2023-11-22T17:21:12;17.55;;;12.32;;
84011;SDS011;74081;52.490;13.428;2023-11-22T17:23:42;29.33;;;20.90;;
84011;SDS011;74081;52.490;13.428;2023-11-22T17:26:09;30.13;;;19.77;;
84011;SDS011;74081;52.490;13.428;2023-11-22T17:28:38;27.75;;;17.85;;
84011;SDS011;74081;52.490;13.428;2023-11-22T17:31:05;17.92;;;13.77;;
84011;SDS011;74081;52.490;13.428;2023-11-22T17:33:32;14.45;;;11.98;;
84011;SDS011;74081;52.490;13.428;2023-11-22T17:35:59;15.82;;;11.98;;
84011;SDS011;74081;52.490;13.428;2023-11-22T17:38:26;19.52;;;14.73;;
84011;SDS011;74081;52.490;13.428;2023-11-22T17:40:53;19.05;;;14.23;;
84011;SDS011;74081;52.490;13.428;2023-11-22T17:43:20;24.35;;;16.30;;
84011;SDS011;74081;52.490;13.428;2023-11-22T17:45:49;20.42;;;14.30;;
84011;SDS011;74081;52.490;13.428;2023-11-22T17:48:16;18.42;;;13.45;;
84011;SDS011;74081;52.490;13.428;2023-11-22T17:50:44;18.27;;;13.00;;
84011;SDS011;74081;52.490;13.428;2023-11-22T17:53:13;14.07;;;10.55;;
84011;SDS011;74081;52.490;13.428;2023-11-22T17:55:40;20.27;;;12.95;;
84011;SDS011;74081;52.490;13.428;2023-11-22T17:58:09;21.08;;;14.25;;
84011;SDS011;74081;52.490;13.428;2023-11-22T18:00:35;16.73;;;11.73;;
84011;SDS011;74081;52.490;13.428;2023-11-22T18:03:02;18.48;;;12.95;;
84011;SDS011;74081;52.490;13.428;2023-11-22T18:05:30;17.40;;;12.00;;
84011;SDS011;74081;52.490;13.428;2023-11-22T18:07:57;17.77;;;11.73;;
84011;SDS011;74081;52.490;13.428;2023-11-22T18:10:24;17.65;;;13.18;;
84011;SDS011;74081;52.490;13.428;2023-11-22T18:13:04;14.65;;;12.82;;
84011;SDS011;74081;52.490;13.428;2023-11-22T18:15:34;25.98;;;15.32;;
84011;SDS011;74081;52.490;13.428;2023-11-22T18:18:04;35.47;;;20.50;;
84011;SDS011;74081;52.490;13.428;2023-11-22T18:20:31;28.17;;;17.90;;
84011;SDS011;74081;52.490;13.428;2023-11-22T18:23:00;27.20;;;16.48;;
84011;SDS011;74081;52.490;13.428;2023-11-22T18:25:28;24.20;;;14.10;;
84011;SDS011;74081;52.490;13.428;2023-11-22T18:27:58;18.27;;;13.63;;
84011;SDS011;74081;52.490;13.428;2023-11-22T18:30:25;23.33;;;14.10;;
84011;SDS011;74081;52.490;13.428;2023-11-22T18:32:52;31.92;;;16.13;;
84011;SDS011;74081;52.490;13.428;2023-11-22T18:35:20;19.88;;;14.25;;
84011;SDS011;74081;52.490;13.428;2023-11-22T18:37:46;22.02;;;14.00;;
84011;SDS011;74081;52.490;13.428;2023-11-22T18:40:14;22.02;;;13.50;;
84011;SDS011;74081;52.490;13.428;2023-11-22T18:42:42;15.82;;;11.43;;
84011;SDS011;74081;52.490;13.428;2023-11-22T18:45:10;15.00;;;11.85;;
84011;SDS011;74081;52.490;13.428;2023-11-22T18:47:39;15.77;;;11.80;;
84011;SDS011;74081;52.490;13.428;2023-11-22T18:50:07;15.45;;;11.65;;
84011;SDS011;74081;52.490;13.428;2023-11-22T18:52:35;20.77;;;12.57;;
84011;SDS011;74081;52.490;13.428;2023-11-22T18:55:02;13.02;;;10.05;;
84011;SDS011;74081;52.490;13.428;2023-11-22T18:57:29;15.73;;;11.05;;
84011;SDS011;74081;52.490;13.428;2023-11-22T18:59:55;22.45;;;13.55;;
84011;SDS011;74081;52.490;13.428;2023-11-22T19:02:23;28.95;;;18.50;;
84011;SDS011;74081;52.490;13.428;2023-11-22T19:04:50;29.30;;;17.40;;
84011;SDS011;74081;52.490;13.428;2023-11-22T19:07:16;24.55;;;16.67;;
84011;SDS011;74081;52.490;13.428;2023-11-22T19:09:45;28.45;;;19.63;;
84011;SDS011;74081;52.490;13.428;2023-11-22T19:12:13;17.63;;;13.20;;
84011;SDS011;74081;52.490;13.428;2023-11-22T19:14:41;19.85;;;12.82;;
84011;SDS011;74081;52.490;13.428;2023-11-22T19:17:09;24.65;;;17.02;;
84011;SDS011;74081;52.490;13.428;2023-11-22T19:19:37;43.15;;;25.02;;
84011;SDS011;74081;52.490;13.428;2023-11-22T19:22:04;39.88;;;23.20;;
84011;SDS011;74081;52.490;13.428;2023-11-22T19:24:32;36.65;;;22.25;;
84011;SDS011;74081;52.490;13.428;2023-11-22T19:26:59;31.52;;;19.65;;
84011;SDS011;74081;52.490;13.428;2023-11-22T19:29:27;31.42;;;21.00;;
84011;SDS011;74081;52.490;13.428;2023-11-22T19:31:55;34.63;;;21.30;;
84011;SDS011;74081;52.490;13.428;2023-11-22T19:34:24;28.88;;;18.90;;
84011;SDS011;74081;52.490;13.428;2023-11-22T19:36:51;24.95;;;16.40;;
84011;SDS011;74081;52.490;13.428;2023-11-22T19:39:21;19.75;;;14.57;;
84011;SDS011;74081;52.490;13.428;2023-11-22T19:41:48;23.65;;;15.75;;
84011;SDS011;74081;52.490;13.428;2023-11-22T19:44:15;19.45;;;14.90;;
84011;SDS011;74081;52.490;13.428;2023-11-22T19:46:46;23.55;;;14.32;;
84011;SDS011;74081;52.490;13.428;2023-11-22T19:49:13;25.73;;;16.75;;
84011;SDS011;74081;52.490;13.428;2023-11-22T19:51:41;24.40;;;17.63;;
84011;SDS011;74081;52.490;13.428;2023-11-22T19:54:08;26.95;;;18.40;;
84011;SDS011;74081;52.490;13.428;2023-11-22T19:56:35;27.27;;;18.25;;
84011;SDS011;74081;52.490;13.428;2023-11-22T19:59:02;22.98;;;16.25;;
84011;SDS011;74081;52.490;13.428;2023-11-22T20:01:29;38.58;;;24.50;;
84011;SDS011;74081;52.490;13.428;2023-11-22T20:03:56;35.17;;;21.15;;
84011;SDS011;74081;52.490;13.428;2023-11-22T20:06:23;23.88;;;16.25;;
84011;SDS011;74081;52.490;13.428;2023-11-22T20:08:54;24.83;;;17.52;;
84011;SDS011;74081;52.490;13.428;2023-11-22T20:11:21;30.85;;;19.25;;
84011;SDS011;74081;52.490;13.428;2023-11-22T20:13:48;29.40;;;19.40;;
84011;SDS011;74081;52.490;13.428;2023-11-22T20:16:16;25.10;;;18.25;;
84011;SDS011;74081;52.490;13.428;2023-11-22T20:18:43;22.40;;;18.23;;
84011;SDS011;74081;52.490;13.428;2023-11-22T20:21:11;21.70;;;16.45;;
84011;SDS011;74081;52.490;13.428;2023-11-22T20:23:39;22.48;;;15.10;;
84011;SDS011;74081;52.490;13.428;2023-11-22T20:26:07;21.30;;;15.45;;
84011;SDS011;74081;52.490;13.428;2023-11-22T20:28:36;22.95;;;17.45;;
84011;SDS011;74081;52.490;13.428;2023-11-22T20:31:03;23.52;;;17.33;;
84011;SDS011;74081;52.490;13.428;2023-11-22T20:33:29;22.00;;;16.95;;
84011;SDS011;74081;52.490;13.428;2023-11-22T20:35:56;23.02;;;16.05;;
84011;SDS011;74081;52.490;13.428;2023-11-22T20:38:23;22.92;;;16.50;;
84011;SDS011;74081;52.490;13.428;2023-11-22T20:40:50;26.25;;;19.27;;
84011;SDS011;74081;52.490;13.428;2023-11-22T20:43:17;22.02;;;16.45;;
84011;SDS011;74081;52.490;13.428;2023-11-22T20:45:44;22.30;;;16.75;;
84011;SDS011;74081;52.490;13.428;2023-11-22T20:48:12;24.42;;;17.20;;
84011;SDS011;74081;52.490;13.428;2023-11-22T20:50:40;25.95;;;19.63;;
84011;SDS011;74081;52.490;13.428;2023-11-22T20:53:08;26.63;;;17.60;;
84011;SDS011;74081;52.490;13.428;2023-11-22T20:55:35;31.60;;;20.23;;
84011;SDS011;74081;52.490;13.428;2023-11-22T20:58:02;27.17;;;19.05;;
84011;SDS011;74081;52.490;13.428;2023-11-22T21:00:29;28.48;;;18.50;;
84011;SDS011;74081;52.490;13.428;2023-11-22T21:02:57;26.55;;;19.83;;
84011;SDS011;74081;52.490;13.428;2023-11-22T21:05:24;26.55;;;19.42;;
84011;SDS011;74081;52.490;13.428;2023-11-22T21:07:51;29.02;;;19.85;;
84011;SDS011;74081;52.490;13.428;2023-11-22T21:10:18;25.58;;;18.40;;
84011;SDS011;74081;52.490;13.428;2023-11-22T21:12:44;22.88;;;17.25;;
84011;SDS011;74081;52.490;13.428;2023-11-22T21:15:11;22.17;;;16.67;;
84011;SDS011;74081;52.490;13.428;2023-11-22T21:17:39;22.92;;;17.70;;
84011;SDS011;74081;52.490;13.428;2023-11-22T21:20:09;27.55;;;17.80;;
84011;SDS011;74081;52.490;13.428;2023-11-22T21:22:39;21.20;;;17.73;;
84011;SDS011;74081;52.490;13.428;2023-11-22T21:25:06;24.40;;;17.60;;
84011;SDS011;74081;52.490;13.428;2023-11-22T21:27:36;26.02;;;17.90;;
84011;SDS011;74081;52.490;13.428;2023-11-22T21:30:06;28.08;;;19.65;;
84011;SDS011;74081;52.490;13.428;2023-11-22T21:32:39;28.40;;;21.00;;
84011;SDS011;74081;52.490;13.428;2023-11-22T21:35:07;22.20;;;17.65;;
84011;SDS011;74081;52.490;13.428;2023-11-22T21:37:34;25.33;;;17.95;;
84011;SDS011;74081;52.490;13.428;2023-11-22T21:40:02;21.35;;;17.42;;
84011;SDS011;74081;52.490;13.428;2023-11-22T21:42:37;27.42;;;18.05;;
84011;SDS011;74081;52.490;13.428;2023-11-22T21:45:05;22.67;;;17.05;;
84011;SDS011;74081;52.490;13.428;2023-11-22T21:47:34;26.40;;;17.55;;
84011;SDS011;74081;52.490;13.428;2023-11-22T21:50:03;22.15;;;17.15;;
84011;SDS011;74081;52.490;13.428;2023-11-22T21:52:30;21.27;;;16.23;;
84011;SDS011;74081;52.490;13.428;2023-11-22T21:54:57;26.65;;;18.75;;
84011;SDS011;74081;52.490;13.428;2023-11-22T21:57:24;26.27;;;17.88;;
84011;SDS011;74081;52.490;13.428;2023-11-22T21:59:51;24.52;;;19.15;;
84011;SDS011;74081;52.490;13.428;2023-11-22T22:02:18;23.52;;;18.20;;
84011;SDS011;74081;52.490;13.428;2023-11-22T22:04:46;21.27;;;16.65;;
84011;SDS011;74081;52.490;13.428;2023-11-22T22:07:13;23.17;;;17.23;;
84011;SDS011;74081;52.490;13.428;2023-11-22T22:09:40;21.92;;;17.02;;
84011;SDS011;74081;52.490;13.428;2023-11-22T22:12:07;20.38;;;16.10;;
84011;SDS011;74081;52.490;13.428;2023-11-22T22:14:34;23.48;;;17.42;;
84011;SDS011;74081;52.490;13.428;2023-11-22T22:17:00;23.05;;;16.92;;
84011;SDS011;74081;52.490;13.428;2023-11-22T22:19:28;21.88;;;15.13;;
84011;SDS011;74081;52.490;13.428;2023-11-22T22:21:55;22.45;;;14.95;;
84011;SDS011;74081;52.490;13.428;2023-11-22T22:24:22;22.02;;;17.75;;
84011;SDS011;74081;52.490;13.428;2023-11-22T22:26:49;19.90;;;15.23;;
84011;SDS011;74081;52.490;13.428;2023-11-22T22:29:18;18.50;;;15.85;;
84011;SDS011;74081;52.490;13.428;2023-11-22T22:31:44;25.20;;;17.73;;
84011;SDS011;74081;52.490;13.428;2023-11-22T22:34:12;21.23;;;16.20;;
84011;SDS011;74081;52.490;13.428;2023-11-22T22:36:39;19.50;;;16.55;;
84011;SDS011;74081;52.490;13.428;2023-11-22T22:39:05;22.23;;;15.35;;
84011;SDS011;74081;52.490;13.428;2023-11-22T22:41:33;18.25;;;15.10;;
84011;SDS011;74081;52.490;13.428;2023-11-22T22:44:00;23.33;;;17.40;;
84011;SDS011;74081;52.490;13.428;2023-11-22T22:46:27;23.52;;;17.40;;
84011;SDS011;74081;52.490;13.428;2023-11-22T22:48:54;18.77;;;15.20;;
84011;SDS011;74081;52.490;13.428;2023-11-22T22:51:21;20.20;;;15.00;;
84011;SDS011;74081;52.490;13.428;2023-11-22T22:53:48;17.75;;;14.18;;
84011;SDS011;74081;52.490;13.428;2023-11-22T22:56:17;20.20;;;15.88;;
84011;SDS011;74081;52.490;13.428;2023-11-22T22:58:45;20.45;;;15.45;;
84011;SDS011;74081;52.490;13.428;2023-11-22T23:01:11;17.40;;;14.23;;
84011;SDS011;74081;52.490;13.428;2023-11-22T23:03:42;19.92;;;13.85;;
84011;SDS011;74081;52.490;13.428;2023-11-22T23:06:09;17.63;;;14.48;;
84011;SDS011;74081;52.490;13.428;2023-11-22T23:08:46;18.25;;;15.05;;
84011;SDS011;74081;52.490;13.428;2023-11-22T23:11:12;18.20;;;14.20;;
84011;SDS011;74081;52.490;13.428;2023-11-22T23:13:39;16.55;;;13.57;;
84011;SDS011;74081;52.490;13.428;2023-11-22T23:16:06;18.50;;;13.68;;
84011;SDS011;74081;52.490;13.428;2023-11-22T23:18:33;15.77;;;13.15;;
84011;SDS011;74081;52.490;13.428;2023-11-22T23:21:00;17.60;;;14.07;;
84011;SDS011;74081;52.490;13.428;2023-11-22T23:23:27;16.10;;;13.05;;
84011;SDS011;74081;52.490;13.428;2023-11-22T23:25:54;17.40;;;12.90;;
84011;SDS011;74081;52.490;13.428;2023-11-22T23:28:21;17.73;;;13.40;;
84011;SDS011;74081;52.490;13.428;2023-11-22T23:30:48;14.00;;;12.32;;
84011;SDS011;74081;52.490;13.428;2023-11-22T23:33:15;15.70;;;12.95;;
84011;SDS011;74081;52.490;13.428;2023-11-22T23:35:42;14.77;;;13.32;;
84011;SDS011;74081;52.490;13.428;2023-11-22T23:38:10;14.75;;;11.88;;
84011;SDS011;74081;52.490;13.428;2023-11-22T23:40:38;12.95;;;11.15;;
84011;SDS011;74081;52.490;13.428;2023-11-22T23:43:05;13.75;;;12.05;;
84011;SDS011;74081;52.490;13.428;2023-11-22T23:45:32;14.68;;;12.63;;
84011;SDS011;74081;52.490;13.428;2023-11-22T23:47:59;15.48;;;12.77;;
84011;SDS011;74081;52.490;13.428;2023-11-22T23:50:27;13.23;;;11.85;;
84011;SDS011;74081;52.490;13.428;2023-11-22T23:52:54;15.55;;;11.52;;
84011;SDS011;74081;52.490;13.428;2023-11-22T23:55:21;15.85;;;11.65;;
84011;SDS011;74081;52.490;13.428;2023-11-22T23:57:48;14.68;;;12.32;;
